EST,Max TemperatureF,Mean TemperatureF,Min TemperatureF,Max Dew PointF,MeanDew PointF,Min DewpointF,Max Humidity, Mean Humidity, Min Humidity, Max Sea Level PressureIn, Mean Sea Level PressureIn, Min Sea Level PressureIn, Max VisibilityMiles, Mean VisibilityMiles, Min VisibilityMiles, Max Wind SpeedMPH, Mean Wind SpeedMPH, Max Gust SpeedMPH,PrecipitationIn, CloudCover, Events, WindDirDegrees
2012-11-1,63,50,37,42,37,31,100,65,30,29.88,29.81,29.75,10,10,7,20,5,25,0.00,0,,259
2012-11-2,68,53,37,47,38,31,89,60,30,29.97,29.90,29.81,10,10,10,18,5,24,0.00,1,,257
2012-11-3,64,50,36,42,37,31,92,61,30,30.11,30.05,29.97,10,10,7,17,4,21,0.00,0,,328
2012-11-4,78,60,42,60,49,39,96,71,46,30.08,29.98,29.90,10,9,2,18,7,23,0.21,2,Rain-Thunderstorm,357
2012-11-5,60,52,43,44,40,37,93,69,44,30.10,30.03,29.96,10,10,10,17,9,22,T,2,Rain,21
2012-11-6,47,43,39,43,39,35,92,82,71,30.08,29.97,29.87,10,9,3,16,8,22,0.27,6,Rain,9
2012-11-7,55,47,39,41,37,34,85,70,54,29.93,29.86,29.81,10,10,10,16,8,20,0.00,6,,335
2012-11-8,61,48,34,36,32,24,92,59,25,30.10,30.02,29.94,10,10,10,17,6,21,0.00,0,,309
2012-11-9,63,48,33,39,31,26,89,58,27,30.28,30.22,30.11,10,10,10,8,2,14,0.00,0,,307
2012-11-10,70,54,37,45,40,35,93,62,31,30.41,30.35,30.28,10,10,7,10,1,13,0.00,0,,140
2012-11-11,72,57,42,57,50,40,96,75,53,30.50,30.45,30.41,10,9,6,12,4,15,0.00,0,,76
2012-11-12,77,65,52,63,57,52,100,80,60,30.40,30.34,30.22,10,6,0,13,5,16,T,3,Fog-Rain,74
2012-11-13,69,58,46,64,57,43,100,91,81,30.33,30.23,30.17,10,7,0,20,9,26,0.84,7,Fog-Rain,6
2012-11-14,53,49,45,43,42,41,92,79,66,30.40,30.34,30.30,10,9,2,18,13,25,T,8,,19
2012-11-15,49,46,43,47,43,39,93,85,76,30.28,30.22,30.18,10,8,3,20,10,23,0.22,8,Rain,359
2012-11-16,59,51,43,47,43,39,93,75,57,30.34,30.26,30.20,10,10,5,15,9,20,0.00,3,,7
2012-11-17,57,49,41,47,42,35,89,78,66,30.37,30.34,30.32,10,10,10,22,13,28,0.00,4,,23
2012-11-18,56,54,51,54,51,45,93,85,77,30.32,30.23,30.16,10,6,2,33,18,41,2.33,8,Rain,18
2012-11-19,57,55,52,52,50,48,96,87,77,30.18,30.14,30.08,10,9,3,23,15,32,0.46,8,Rain,7
2012-11-20,59,55,50,49,48,48,93,80,67,30.11,30.07,30.03,10,10,5,17,8,23,0.00,7,,1
2012-11-21,62,54,45,48,43,36,93,72,51,30.13,30.08,30.04,10,10,10,17,9,23,0.00,2,,5
2012-11-22,62,51,40,43,39,35,83,66,48,30.17,30.13,30.09,10,10,10,18,9,25,0.00,0,,354
2012-11-23,67,52,37,47,38,33,85,57,29,30.15,30.05,29.88,10,10,10,12,5,17,0.00,0,,246
2012-11-24,56,45,33,45,32,26,89,61,32,30.12,29.98,29.87,10,10,10,20,8,24,0.00,0,,324
2012-11-25,55,42,29,34,25,20,85,56,26,30.21,30.14,30.09,10,10,10,13,4,18,0.00,0,,291
2012-11-26,68,51,33,38,32,25,92,56,20,30.24,30.18,30.13,10,9,2,9,3,14,0.00,0,,237
2012-11-27,63,51,38,49,42,35,93,66,39,30.21,30.17,30.11,10,9,6,9,2,9,0.10,4,Rain,312
2012-11-28,55,44,33,48,38,31,100,73,46,30.40,30.27,30.17,10,7,4,17,7,22,0.00,4,,358
2012-11-29,57,43,29,37,31,25,92,61,30,30.50,30.43,30.39,10,8,2,9,1,16,0.00,0,,70
2012-11-30,63,46,29,41,34,27,92,63,33,30.43,30.37,30.32,10,9,6,8,1,13,0.00,0,,116